sensor_id;sensor_type;location;lat;lon;timestamp;P1;durP1;ratioP1;P2;durP2;ratioP2
63953;SDS011;50128;52.094;5.232;2022-07-29T00:00:44;3.4;;;1.7;;
63953;SDS011;50128;52.094;5.232;2022-07-29T00:02:32;3.9;;;1.6;;
63953;SDS011;50128;52.094;5.232;2022-07-29T00:04:19;3.7;;;1.6;;
63953;SDS011;50128;52.094;5.232;2022-07-29T00:06:06;4.1;;;1.9;;
63953;SDS011;50128;52.094;5.232;2022-07-29T00:07:53;3.8;;;1.6;;
63953;SDS011;50128;52.094;5.232;2022-07-29T00:09:40;4.3;;;1.8;;
63953;SDS011;50128;52.094;5.232;2022-07-29T00:13:14;4.1;;;1.9;;
63953;SDS011;50128;52.094;5.232;2022-07-29T00:15:01;4.8;;;1.7;;
63953;SDS011;50128;52.094;5.232;2022-07-29T00:16:48;5.7;;;1.8;;
63953;SDS011;50128;52.094;5.232;2022-07-29T00:18:34;4.7;;;1.7;;
63953;SDS011;50128;52.094;5.232;2022-07-29T00:20:20;5.0;;;1.7;;
63953;SDS011;50128;52.094;5.232;2022-07-29T00:22:06;4.3;;;1.7;;
63953;SDS011;50128;52.094;5.232;2022-07-29T00:25:40;5.5;;;1.7;;
63953;SDS011;50128;52.094;5.232;2022-07-29T00:27:26;3.5;;;1.5;;
63953;SDS011;50128;52.094;5.232;2022-07-29T00:29:12;4.7;;;1.7;;
63953;SDS011;50128;52.094;5.232;2022-07-29T00:30:58;4.2;;;1.6;;
63953;SDS011;50128;52.094;5.232;2022-07-29T00:32:44;4.91;;;1.8;;
63953;SDS011;50128;52.094;5.232;2022-07-29T00:37:33;3.8;;;1.6;;
63953;SDS011;50128;52.094;5.232;2022-07-29T00:39:19;4.61;;;1.7;;
63953;SDS011;50128;52.094;5.232;2022-07-29T00:41:05;4.3;;;1.6;;
63953;SDS011;50128;52.094;5.232;2022-07-29T00:44:38;3.7;;;1.4;;
63953;SDS011;50128;52.094;5.232;2022-07-29T00:46:25;4.5;;;1.7;;
63953;SDS011;50128;52.094;5.232;2022-07-29T00:48:12;4.5;;;1.6;;
63953;SDS011;50128;52.094;5.232;2022-07-29T00:49:59;4.0;;;1.7;;
63953;SDS011;50128;52.094;5.232;2022-07-29T00:51:46;4.1;;;1.5;;
63953;SDS011;50128;52.094;5.232;2022-07-29T00:53:35;3.5;;;1.4;;
63953;SDS011;50128;52.094;5.232;2022-07-29T00:57:09;4.7;;;1.7;;
63953;SDS011;50128;52.094;5.232;2022-07-29T00:58:57;3.5;;;1.3;;
63953;SDS011;50128;52.094;5.232;2022-07-29T01:00:44;3.9;;;1.5;;
63953;SDS011;50128;52.094;5.232;2022-07-29T01:02:31;4.5;;;1.4;;
63953;SDS011;50128;52.094;5.232;2022-07-29T01:04:18;4.41;;;1.4;;
63953;SDS011;50128;52.094;5.232;2022-07-29T01:06:05;3.4;;;1.4;;
63953;SDS011;50128;52.094;5.232;2022-07-29T01:09:43;3.4;;;1.4;;
63953;SDS011;50128;52.094;5.232;2022-07-29T01:11:32;4.3;;;1.5;;
63953;SDS011;50128;52.094;5.232;2022-07-29T01:13:20;3.8;;;1.6;;
63953;SDS011;50128;52.094;5.232;2022-07-29T01:15:07;3.7;;;1.4;;
63953;SDS011;50128;52.094;5.232;2022-07-29T01:16:56;3.9;;;1.3;;
63953;SDS011;50128;52.094;5.232;2022-07-29T01:19:00;4.61;;;1.7;;
63953;SDS011;50128;52.094;5.232;2022-07-29T01:21:38;3.0;;;1.4;;
63953;SDS011;50128;52.094;5.232;2022-07-29T01:24:15;4.41;;;1.5;;
63953;SDS011;50128;52.094;5.232;2022-07-29T01:26:49;4.2;;;1.6;;
63953;SDS011;50128;52.094;5.232;2022-07-29T01:28:47;3.5;;;1.5;;
63953;SDS011;50128;52.094;5.232;2022-07-29T01:30:45;3.8;;;1.4;;
63953;SDS011;50128;52.094;5.232;2022-07-29T01:32:37;4.1;;;1.5;;
63953;SDS011;50128;52.094;5.232;2022-07-29T01:34:25;4.2;;;1.5;;
63953;SDS011;50128;52.094;5.232;2022-07-29T01:36:22;4.7;;;1.7;;
63953;SDS011;50128;52.094;5.232;2022-07-29T01:38:14;4.5;;;1.6;;
63953;SDS011;50128;52.094;5.232;2022-07-29T01:40:08;4.61;;;1.6;;
63953;SDS011;50128;52.094;5.232;2022-07-29T01:42:08;3.5;;;1.4;;
63953;SDS011;50128;52.094;5.232;2022-07-29T01:44:02;3.5;;;1.3;;
63953;SDS011;50128;52.094;5.232;2022-07-29T01:46:01;3.7;;;1.6;;
63953;SDS011;50128;52.094;5.232;2022-07-29T01:47:54;5.2;;;1.5;;
63953;SDS011;50128;52.094;5.232;2022-07-29T01:51:41;5.11;;;1.5;;
63953;SDS011;50128;52.094;5.232;2022-07-29T01:53:36;3.8;;;1.7;;
63953;SDS011;50128;52.094;5.232;2022-07-29T01:55:38;3.3;;;1.5;;
63953;SDS011;50128;52.094;5.232;2022-07-29T01:57:30;5.11;;;1.8;;
63953;SDS011;50128;52.094;5.232;2022-07-29T01:59:19;4.1;;;1.7;;
63953;SDS011;50128;52.094;5.232;2022-07-29T02:01:07;4.0;;;1.9;;
63953;SDS011;50128;52.094;5.232;2022-07-29T02:02:56;3.9;;;1.4;;
63953;SDS011;50128;52.094;5.232;2022-07-29T02:04:48;4.41;;;1.7;;
63953;SDS011;50128;52.094;5.232;2022-07-29T02:08:26;3.6;;;1.6;;
63953;SDS011;50128;52.094;5.232;2022-07-29T02:10:16;4.2;;;1.5;;
63953;SDS011;50128;52.094;5.232;2022-07-29T02:12:08;3.9;;;1.5;;
63953;SDS011;50128;52.094;5.232;2022-07-29T02:13:58;4.0;;;1.7;;
63953;SDS011;50128;52.094;5.232;2022-07-29T02:15:47;4.5;;;1.8;;
63953;SDS011;50128;52.094;5.232;2022-07-29T02:17:38;4.61;;;1.7;;
63953;SDS011;50128;52.094;5.232;2022-07-29T02:19:30;5.5;;;1.8;;
63953;SDS011;50128;52.094;5.232;2022-07-29T02:21:19;4.8;;;1.7;;
63953;SDS011;50128;52.094;5.232;2022-07-29T02:24:59;4.8;;;1.8;;
63953;SDS011;50128;52.094;5.232;2022-07-29T02:26:47;4.1;;;1.7;;
63953;SDS011;50128;52.094;5.232;2022-07-29T02:28:36;3.2;;;1.5;;
63953;SDS011;50128;52.094;5.232;2022-07-29T02:30:23;4.2;;;1.6;;
63953;SDS011;50128;52.094;5.232;2022-07-29T02:32:11;3.8;;;1.7;;
63953;SDS011;50128;52.094;5.232;2022-07-29T02:34:02;4.1;;;1.8;;
63953;SDS011;50128;52.094;5.232;2022-07-29T02:37:40;3.4;;;1.9;;
63953;SDS011;50128;52.094;5.232;2022-07-29T02:39:29;3.3;;;1.7;;
63953;SDS011;50128;52.094;5.232;2022-07-29T02:41:18;5.7;;;2.0;;
63953;SDS011;50128;52.094;5.232;2022-07-29T02:43:08;4.2;;;1.6;;
63953;SDS011;50128;52.094;5.232;2022-07-29T02:44:56;4.1;;;2.0;;
63953;SDS011;50128;52.094;5.232;2022-07-29T02:46:45;5.7;;;2.1;;
63953;SDS011;50128;52.094;5.232;2022-07-29T02:48:37;3.8;;;1.7;;
63953;SDS011;50128;52.094;5.232;2022-07-29T02:52:21;3.8;;;1.8;;
63953;SDS011;50128;52.094;5.232;2022-07-29T02:54:16;3.8;;;1.9;;
63953;SDS011;50128;52.094;5.232;2022-07-29T02:56:10;5.5;;;1.9;;
63953;SDS011;50128;52.094;5.232;2022-07-29T02:58:01;4.1;;;1.8;;
63953;SDS011;50128;52.094;5.232;2022-07-29T02:59:52;4.1;;;1.8;;
63953;SDS011;50128;52.094;5.232;2022-07-29T03:01:43;6.4;;;1.8;;
63953;SDS011;50128;52.094;5.232;2022-07-29T03:03:32;4.7;;;1.8;;
63953;SDS011;50128;52.094;5.232;2022-07-29T03:05:21;3.9;;;1.8;;
63953;SDS011;50128;52.094;5.232;2022-07-29T03:08:59;4.5;;;1.9;;
63953;SDS011;50128;52.094;5.232;2022-07-29T03:10:47;3.7;;;1.9;;
63953;SDS011;50128;52.094;5.232;2022-07-29T03:12:34;4.41;;;2.1;;
63953;SDS011;50128;52.094;5.232;2022-07-29T03:14:22;5.2;;;1.8;;
63953;SDS011;50128;52.094;5.232;2022-07-29T03:16:10;4.2;;;1.9;;
63953;SDS011;50128;52.094;5.232;2022-07-29T03:17:58;4.0;;;1.8;;
63953;SDS011;50128;52.094;5.232;2022-07-29T03:21:31;3.9;;;1.8;;
63953;SDS011;50128;52.094;5.232;2022-07-29T03:23:22;4.8;;;2.1;;
63953;SDS011;50128;52.094;5.232;2022-07-29T03:25:10;4.0;;;2.1;;
63953;SDS011;50128;52.094;5.232;2022-07-29T03:26:59;5.0;;;2.21;;
63953;SDS011;50128;52.094;5.232;2022-07-29T03:28:46;5.5;;;2.21;;
63953;SDS011;50128;52.094;5.232;2022-07-29T03:30:33;5.0;;;2.1;;
63953;SDS011;50128;52.094;5.232;2022-07-29T03:34:06;5.3;;;2.1;;
63953;SDS011;50128;52.094;5.232;2022-07-29T03:35:52;5.2;;;2.1;;
63953;SDS011;50128;52.094;5.232;2022-07-29T03:37:38;6.4;;;2.1;;
63953;SDS011;50128;52.094;5.232;2022-07-29T03:39:25;4.91;;;2.0;;
63953;SDS011;50128;52.094;5.232;2022-07-29T03:41:16;3.9;;;2.0;;
63953;SDS011;50128;52.094;5.232;2022-07-29T03:43:06;4.5;;;2.21;;
63953;SDS011;50128;52.094;5.232;2022-07-29T03:46:45;5.2;;;2.1;;
63953;SDS011;50128;52.094;5.232;2022-07-29T03:48:35;6.4;;;2.4;;
63953;SDS011;50128;52.094;5.232;2022-07-29T03:50:25;6.4;;;2.4;;
63953;SDS011;50128;52.094;5.232;2022-07-29T03:52:12;4.61;;;2.21;;
63953;SDS011;50128;52.094;5.232;2022-07-29T03:54:00;4.61;;;2.21;;
63953;SDS011;50128;52.094;5.232;2022-07-29T03:55:48;4.1;;;2.21;;
63953;SDS011;50128;52.094;5.232;2022-07-29T03:57:40;3.8;;;2.0;;
63953;SDS011;50128;52.094;5.232;2022-07-29T04:01:18;4.7;;;2.1;;
63953;SDS011;50128;52.094;5.232;2022-07-29T04:03:06;5.2;;;2.1;;
63953;SDS011;50128;52.094;5.232;2022-07-29T04:04:55;5.11;;;2.21;;
63953;SDS011;50128;52.094;5.232;2022-07-29T04:06:42;5.5;;;2.31;;
63953;SDS011;50128;52.094;5.232;2022-07-29T04:08:31;5.8;;;2.5;;
63953;SDS011;50128;52.094;5.232;2022-07-29T04:10:18;5.8;;;2.5;;
63953;SDS011;50128;52.094;5.232;2022-07-29T04:13:52;5.4;;;2.4;;
63953;SDS011;50128;52.094;5.232;2022-07-29T04:15:38;4.61;;;2.31;;
63953;SDS011;50128;52.094;5.232;2022-07-29T04:17:25;6.4;;;2.4;;
63953;SDS011;50128;52.094;5.232;2022-07-29T04:19:11;5.3;;;2.5;;
63953;SDS011;50128;52.094;5.232;2022-07-29T04:21:00;6.3;;;2.5;;
63953;SDS011;50128;52.094;5.232;2022-07-29T04:22:47;3.6;;;2.1;;
63953;SDS011;50128;52.094;5.232;2022-07-29T04:26:20;4.41;;;2.31;;
63953;SDS011;50128;52.094;5.232;2022-07-29T04:28:08;4.41;;;2.21;;
63953;SDS011;50128;52.094;5.232;2022-07-29T04:29:56;5.3;;;2.31;;
63953;SDS011;50128;52.094;5.232;2022-07-29T04:31:42;4.5;;;2.21;;
63953;SDS011;50128;52.094;5.232;2022-07-29T04:33:29;5.2;;;2.5;;
63953;SDS011;50128;52.094;5.232;2022-07-29T04:35:15;4.7;;;2.6;;
63953;SDS011;50128;52.094;5.232;2022-07-29T04:38:49;5.6;;;2.5;;
63953;SDS011;50128;52.094;5.232;2022-07-29T04:40:36;5.8;;;2.5;;
63953;SDS011;50128;52.094;5.232;2022-07-29T04:42:22;5.11;;;2.7;;
63953;SDS011;50128;52.094;5.232;2022-07-29T04:44:08;4.3;;;2.31;;
63953;SDS011;50128;52.094;5.232;2022-07-29T04:45:54;5.9;;;2.31;;
63953;SDS011;50128;52.094;5.232;2022-07-29T04:49:27;4.8;;;2.1;;
63953;SDS011;50128;52.094;5.232;2022-07-29T04:51:14;3.4;;;2.0;;
63953;SDS011;50128;52.094;5.232;2022-07-29T04:53:02;5.2;;;2.1;;
63953;SDS011;50128;52.094;5.232;2022-07-29T04:54:48;4.2;;;1.9;;
63953;SDS011;50128;52.094;5.232;2022-07-29T04:56:35;4.1;;;2.31;;
63953;SDS011;50128;52.094;5.232;2022-07-29T04:58:23;4.2;;;1.8;;
63953;SDS011;50128;52.094;5.232;2022-07-29T05:01:57;4.61;;;2.21;;
63953;SDS011;50128;52.094;5.232;2022-07-29T05:03:44;4.61;;;2.31;;
63953;SDS011;50128;52.094;5.232;2022-07-29T05:05:30;4.41;;;2.1;;
63953;SDS011;50128;52.094;5.232;2022-07-29T05:07:17;5.11;;;2.31;;
63953;SDS011;50128;52.094;5.232;2022-07-29T05:09:03;4.5;;;2.21;;
63953;SDS011;50128;52.094;5.232;2022-07-29T05:10:51;4.1;;;1.9;;
63953;SDS011;50128;52.094;5.232;2022-07-29T05:14:23;3.8;;;2.21;;
63953;SDS011;50128;52.094;5.232;2022-07-29T05:16:10;4.3;;;1.9;;
63953;SDS011;50128;52.094;5.232;2022-07-29T05:17:56;4.5;;;2.21;;
63953;SDS011;50128;52.094;5.232;2022-07-29T05:19:42;3.7;;;2.1;;
63953;SDS011;50128;52.094;5.232;2022-07-29T05:21:29;3.8;;;1.8;;
63953;SDS011;50128;52.094;5.232;2022-07-29T05:25:03;3.9;;;2.0;;
63953;SDS011;50128;52.094;5.232;2022-07-29T05:26:50;3.9;;;1.8;;
63953;SDS011;50128;52.094;5.232;2022-07-29T05:28:36;3.5;;;2.0;;
63953;SDS011;50128;52.094;5.232;2022-07-29T05:30:23;4.3;;;2.1;;
63953;SDS011;50128;52.094;5.232;2022-07-29T05:32:11;4.61;;;2.1;;
63953;SDS011;50128;52.094;5.232;2022-07-29T05:33:58;4.61;;;2.0;;
63953;SDS011;50128;52.094;5.232;2022-07-29T05:37:30;4.7;;;2.21;;
63953;SDS011;50128;52.094;5.232;2022-07-29T05:39:17;4.7;;;2.21;;
63953;SDS011;50128;52.094;5.232;2022-07-29T05:41:04;4.5;;;2.0;;
63953;SDS011;50128;52.094;5.232;2022-07-29T05:42:50;5.0;;;2.6;;
63953;SDS011;50128;52.094;5.232;2022-07-29T05:44:38;4.3;;;2.1;;
63953;SDS011;50128;52.094;5.232;2022-07-29T05:46:25;4.61;;;2.31;;
63953;SDS011;50128;52.094;5.232;2022-07-29T05:49:58;5.2;;;2.31;;
63953;SDS011;50128;52.094;5.232;2022-07-29T05:51:44;4.5;;;2.1;;
63953;SDS011;50128;52.094;5.232;2022-07-29T05:53:30;4.8;;;2.1;;
63953;SDS011;50128;52.094;5.232;2022-07-29T05:55:17;4.8;;;2.21;;
63953;SDS011;50128;52.094;5.232;2022-07-29T05:57:05;4.2;;;2.1;;
63953;SDS011;50128;52.094;5.232;2022-07-29T05:58:52;4.91;;;2.21;;
63953;SDS011;50128;52.094;5.232;2022-07-29T06:02:26;7.0;;;2.6;;
63953;SDS011;50128;52.094;5.232;2022-07-29T06:04:12;6.4;;;2.5;;
63953;SDS011;50128;52.094;5.232;2022-07-29T06:05:59;6.6;;;2.4;;
63953;SDS011;50128;52.094;5.232;2022-07-29T06:07:45;4.8;;;2.1;;
63953;SDS011;50128;52.094;5.232;2022-07-29T06:09:32;5.8;;;2.6;;
63953;SDS011;50128;52.094;5.232;2022-07-29T06:13:05;4.61;;;2.1;;
63953;SDS011;50128;52.094;5.232;2022-07-29T06:14:51;4.5;;;2.4;;
63953;SDS011;50128;52.094;5.232;2022-07-29T06:16:37;4.61;;;2.4;;
63953;SDS011;50128;52.094;5.232;2022-07-29T06:18:24;3.7;;;2.5;;
63953;SDS011;50128;52.094;5.232;2022-07-29T06:20:10;4.91;;;2.21;;
63953;SDS011;50128;52.094;5.232;2022-07-29T06:21:57;6.7;;;2.1;;
63953;SDS011;50128;52.094;5.232;2022-07-29T06:25:34;3.7;;;1.9;;
63953;SDS011;50128;52.094;5.232;2022-07-29T06:27:20;5.3;;;2.1;;
63953;SDS011;50128;52.094;5.232;2022-07-29T06:29:06;3.9;;;2.21;;
63953;SDS011;50128;52.094;5.232;2022-07-29T06:30:54;5.0;;;2.31;;
63953;SDS011;50128;52.094;5.232;2022-07-29T06:32:42;4.2;;;2.1;;
63953;SDS011;50128;52.094;5.232;2022-07-29T06:34:28;4.0;;;2.0;;
63953;SDS011;50128;52.094;5.232;2022-07-29T06:38:01;3.8;;;2.21;;
63953;SDS011;50128;52.094;5.232;2022-07-29T06:41:00;4.41;;;2.0;;
63953;SDS011;50128;52.094;5.232;2022-07-29T06:42:46;4.8;;;2.0;;
63953;SDS011;50128;52.094;5.232;2022-07-29T06:44:33;4.91;;;2.4;;
63953;SDS011;50128;52.094;5.232;2022-07-29T06:46:20;4.91;;;2.5;;
63953;SDS011;50128;52.094;5.232;2022-07-29T06:48:08;5.3;;;2.4;;
63953;SDS011;50128;52.094;5.232;2022-07-29T06:49:55;4.1;;;1.8;;
63953;SDS011;50128;52.094;5.232;2022-07-29T06:51:41;4.1;;;1.8;;
63953;SDS011;50128;52.094;5.232;2022-07-29T06:53:28;8.0;;;2.4;;
63953;SDS011;50128;52.094;5.232;2022-07-29T06:57:02;5.7;;;2.6;;
63953;SDS011;50128;52.094;5.232;2022-07-29T06:58:48;4.7;;;2.31;;
63953;SDS011;50128;52.094;5.232;2022-07-29T07:00:34;4.8;;;2.4;;
63953;SDS011;50128;52.094;5.232;2022-07-29T07:02:21;4.7;;;2.6;;
63953;SDS011;50128;52.094;5.232;2022-07-29T07:04:08;5.7;;;2.31;;
63953;SDS011;50128;52.094;5.232;2022-07-29T07:05:56;5.4;;;2.5;;
63953;SDS011;50128;52.094;5.232;2022-07-29T07:09:29;4.91;;;2.5;;
63953;SDS011;50128;52.094;5.232;2022-07-29T07:11:15;7.1;;;2.6;;
63953;SDS011;50128;52.094;5.232;2022-07-29T07:13:02;5.2;;;2.5;;
63953;SDS011;50128;52.094;5.232;2022-07-29T07:14:49;7.0;;;2.5;;
63953;SDS011;50128;52.094;5.232;2022-07-29T07:16:35;5.2;;;2.5;;
63953;SDS011;50128;52.094;5.232;2022-07-29T07:18:22;4.61;;;2.5;;
63953;SDS011;50128;52.094;5.232;2022-07-29T07:21:55;5.8;;;2.4;;
63953;SDS011;50128;52.094;5.232;2022-07-29T07:23:42;4.7;;;2.5;;
63953;SDS011;50128;52.094;5.232;2022-07-29T07:25:28;5.5;;;2.4;;
63953;SDS011;50128;52.094;5.232;2022-07-29T07:27:14;5.2;;;2.4;;
63953;SDS011;50128;52.094;5.232;2022-07-29T07:29:00;3.9;;;2.21;;
63953;SDS011;50128;52.094;5.232;2022-07-29T07:32:34;4.7;;;2.31;;
63953;SDS011;50128;52.094;5.232;2022-07-29T07:34:21;4.91;;;2.21;;
63953;SDS011;50128;52.094;5.232;2022-07-29T07:36:07;8.1;;;2.8;;
63953;SDS011;50128;52.094;5.232;2022-07-29T07:37:53;5.4;;;2.4;;
63953;SDS011;50128;52.094;5.232;2022-07-29T07:39:41;3.9;;;2.21;;
63953;SDS011;50128;52.094;5.232;2022-07-29T07:41:27;4.7;;;2.4;;
63953;SDS011;50128;52.094;5.232;2022-07-29T07:45:00;5.9;;;2.6;;
63953;SDS011;50128;52.094;5.232;2022-07-29T07:46:46;5.6;;;2.5;;
63953;SDS011;50128;52.094;5.232;2022-07-29T07:48:34;5.3;;;2.31;;
63953;SDS011;50128;52.094;5.232;2022-07-29T07:50:21;4.61;;;2.31;;
63953;SDS011;50128;52.094;5.232;2022-07-29T07:52:07;5.6;;;2.5;;
63953;SDS011;50128;52.094;5.232;2022-07-29T07:55:40;5.8;;;2.4;;
63953;SDS011;50128;52.094;5.232;2022-07-29T07:57:29;4.5;;;2.21;;
63953;SDS011;50128;52.094;5.232;2022-07-29T07:59:15;4.8;;;2.0;;
63953;SDS011;50128;52.094;5.232;2022-07-29T08:01:02;6.7;;;2.4;;
63953;SDS011;50128;52.094;5.232;2022-07-29T08:02:49;4.91;;;2.21;;
63953;SDS011;50128;52.094;5.232;2022-07-29T08:04:36;4.91;;;2.21;;
63953;SDS011;50128;52.094;5.232;2022-07-29T08:08:11;6.3;;;2.31;;
63953;SDS011;50128;52.094;5.232;2022-07-29T08:09:57;4.5;;;2.21;;
63953;SDS011;50128;52.094;5.232;2022-07-29T08:11:43;5.11;;;2.5;;
63953;SDS011;50128;52.094;5.232;2022-07-29T08:13:30;5.8;;;2.21;;
63953;SDS011;50128;52.094;5.232;2022-07-29T08:15:16;5.3;;;2.4;;
63953;SDS011;50128;52.094;5.232;2022-07-29T08:17:03;4.7;;;2.31;;
63953;SDS011;50128;52.094;5.232;2022-07-29T08:20:35;4.5;;;2.0;;
63953;SDS011;50128;52.094;5.232;2022-07-29T08:22:23;4.3;;;2.5;;
63953;SDS011;50128;52.094;5.232;2022-07-29T08:25:13;4.41;;;2.31;;
63953;SDS011;50128;52.094;5.232;2022-07-29T08:26:59;6.0;;;2.4;;
63953;SDS011;50128;52.094;5.232;2022-07-29T08:28:46;4.61;;;2.21;;
63953;SDS011;50128;52.094;5.232;2022-07-29T08:30:33;6.3;;;2.31;;
63953;SDS011;50128;52.094;5.232;2022-07-29T08:32:20;5.3;;;2.5;;
63953;SDS011;50128;52.094;5.232;2022-07-29T08:34:09;5.6;;;2.4;;
63953;SDS011;50128;52.094;5.232;2022-07-29T08:35:55;6.0;;;1.9;;
63953;SDS011;50128;52.094;5.232;2022-07-29T08:39:28;4.7;;;2.1;;
63953;SDS011;50128;52.094;5.232;2022-07-29T08:41:15;5.9;;;2.21;;
63953;SDS011;50128;52.094;5.232;2022-07-29T08:43:04;5.11;;;2.31;;
63953;SDS011;50128;52.094;5.232;2022-07-29T08:44:53;5.6;;;2.1;;
63953;SDS011;50128;52.094;5.232;2022-07-29T08:46:41;4.7;;;2.21;;
63953;SDS011;50128;52.094;5.232;2022-07-29T08:48:28;5.5;;;2.1;;
63953;SDS011;50128;52.094;5.232;2022-07-29T08:52:02;3.9;;;2.21;;
63953;SDS011;50128;52.094;5.232;2022-07-29T08:53:49;3.9;;;1.8;;
63953;SDS011;50128;52.094;5.232;2022-07-29T08:55:38;4.8;;;2.31;;
63953;SDS011;50128;52.094;5.232;2022-07-29T08:57:26;9.0;;;2.5;;
63953;SDS011;50128;52.094;5.232;2022-07-29T08:59:13;4.41;;;2.21;;
63953;SDS011;50128;52.094;5.232;2022-07-29T09:01:01;5.2;;;2.0;;
63953;SDS011;50128;52.094;5.232;2022-07-29T09:04:42;5.9;;;2.21;;
63953;SDS011;50128;52.094;5.232;2022-07-29T09:06:31;4.3;;;1.9;;
63953;SDS011;50128;52.094;5.232;2022-07-29T09:08:23;5.11;;;2.31;;
63953;SDS011;50128;52.094;5.232;2022-07-29T09:10:10;6.4;;;2.31;;
63953;SDS011;50128;52.094;5.232;2022-07-29T09:11:56;5.4;;;2.0;;
63953;SDS011;50128;52.094;5.232;2022-07-29T09:13:46;6.4;;;2.7;;
63953;SDS011;50128;52.094;5.232;2022-07-29T09:15:32;6.2;;;2.31;;
63953;SDS011;50128;52.094;5.232;2022-07-29T09:19:27;6.1;;;2.1;;
63953;SDS011;50128;52.094;5.232;2022-07-29T09:22:28;4.5;;;2.21;;
63953;SDS011;50128;52.094;5.232;2022-07-29T09:24:15;4.8;;;1.8;;
63953;SDS011;50128;52.094;5.232;2022-07-29T09:26:05;4.8;;;1.8;;
63953;SDS011;50128;52.094;5.232;2022-07-29T09:29:38;5.3;;;2.1;;
63953;SDS011;50128;52.094;5.232;2022-07-29T09:31:32;3.6;;;1.9;;
63953;SDS011;50128;52.094;5.232;2022-07-29T09:33:20;5.2;;;2.1;;
63953;SDS011;50128;52.094;5.232;2022-07-29T09:35:16;3.8;;;1.7;;
63953;SDS011;50128;52.094;5.232;2022-07-29T09:37:05;4.41;;;1.9;;
63953;SDS011;50128;52.094;5.232;2022-07-29T09:38:56;5.6;;;2.0;;
63953;SDS011;50128;52.094;5.232;2022-07-29T09:40:43;5.7;;;1.7;;
63953;SDS011;50128;52.094;5.232;2022-07-29T09:42:43;6.4;;;1.9;;
63953;SDS011;50128;52.094;5.232;2022-07-29T09:46:34;4.1;;;1.7;;
63953;SDS011;50128;52.094;5.232;2022-07-29T09:48:23;5.6;;;2.21;;
63953;SDS011;50128;52.094;5.232;2022-07-29T09:50:10;4.1;;;1.9;;
63953;SDS011;50128;52.094;5.232;2022-07-29T09:51:59;4.7;;;1.8;;
63953;SDS011;50128;52.094;5.232;2022-07-29T09:53:50;4.2;;;2.0;;
63953;SDS011;50128;52.094;5.232;2022-07-29T09:55:52;3.9;;;2.0;;
63953;SDS011;50128;52.094;5.232;2022-07-29T09:57:39;5.6;;;1.6;;
63953;SDS011;50128;52.094;5.232;2022-07-29T09:59:26;5.0;;;1.7;;
63953;SDS011;50128;52.094;5.232;2022-07-29T10:03:00;5.9;;;1.9;;
63953;SDS011;50128;52.094;5.232;2022-07-29T10:04:47;4.61;;;1.7;;
63953;SDS011;50128;52.094;5.232;2022-07-29T10:06:34;3.8;;;1.7;;
63953;SDS011;50128;52.094;5.232;2022-07-29T10:08:41;4.5;;;1.6;;
63953;SDS011;50128;52.094;5.232;2022-07-29T10:10:28;4.5;;;1.6;;
63953;SDS011;50128;52.094;5.232;2022-07-29T10:12:18;5.4;;;1.8;;
63953;SDS011;50128;52.094;5.232;2022-07-29T10:14:04;4.8;;;1.6;;
63953;SDS011;50128;52.094;5.232;2022-07-29T10:17:39;5.0;;;1.8;;
63953;SDS011;50128;52.094;5.232;2022-07-29T10:19:27;6.1;;;1.6;;
63953;SDS011;50128;52.094;5.232;2022-07-29T10:21:15;4.1;;;1.4;;
63953;SDS011;50128;52.094;5.232;2022-07-29T10:23:02;3.7;;;1.5;;
63953;SDS011;50128;52.094;5.232;2022-07-29T10:24:50;6.5;;;1.8;;
63953;SDS011;50128;52.094;5.232;2022-07-29T10:26:40;5.5;;;1.8;;
63953;SDS011;50128;52.094;5.232;2022-07-29T10:30:16;3.7;;;1.6;;
63953;SDS011;50128;52.094;5.232;2022-07-29T10:32:09;7.1;;;1.9;;
63953;SDS011;50128;52.094;5.232;2022-07-29T10:34:07;6.9;;;1.9;;
63953;SDS011;50128;52.094;5.232;2022-07-29T10:36:07;4.8;;;1.5;;
63953;SDS011;50128;52.094;5.232;2022-07-29T10:38:15;6.6;;;1.4;;
63953;SDS011;50128;52.094;5.232;2022-07-29T10:41:50;6.0;;;1.6;;
63953;SDS011;50128;52.094;5.232;2022-07-29T10:43:58;4.0;;;1.5;;
63953;SDS011;50128;52.094;5.232;2022-07-29T10:45:47;4.8;;;1.6;;
63953;SDS011;50128;52.094;5.232;2022-07-29T10:47:36;5.2;;;1.7;;
63953;SDS011;50128;52.094;5.232;2022-07-29T10:51:10;5.7;;;1.9;;
63953;SDS011;50128;52.094;5.232;2022-07-29T10:52:57;4.3;;;1.8;;
63953;SDS011;50128;52.094;5.232;2022-07-29T10:54:47;4.7;;;1.6;;
63953;SDS011;50128;52.094;5.232;2022-07-29T10:56:36;5.3;;;1.8;;
63953;SDS011;50128;52.094;5.232;2022-07-29T10:58:23;4.91;;;1.7;;
63953;SDS011;50128;52.094;5.232;2022-07-29T11:00:29;4.1;;;1.6;;
63953;SDS011;50128;52.094;5.232;2022-07-29T11:02:50;4.3;;;1.8;;
63953;SDS011;50128;52.094;5.232;2022-07-29T11:05:08;6.2;;;1.8;;
63953;SDS011;50128;52.094;5.232;2022-07-29T11:07:08;5.4;;;1.7;;
63953;SDS011;50128;52.094;5.232;2022-07-29T11:09:14;5.7;;;1.8;;
63953;SDS011;50128;52.094;5.232;2022-07-29T11:13:55;4.8;;;1.7;;
63953;SDS011;50128;52.094;5.232;2022-07-29T11:15:57;5.2;;;1.8;;
63953;SDS011;50128;52.094;5.232;2022-07-29T11:18:02;4.0;;;1.5;;
63953;SDS011;50128;52.094;5.232;2022-07-29T11:19:51;6.1;;;1.8;;
63953;SDS011;50128;52.094;5.232;2022-07-29T11:22:31;5.4;;;1.4;;
63953;SDS011;50128;52.094;5.232;2022-07-29T11:24:21;6.2;;;1.8;;
63953;SDS011;50128;52.094;5.232;2022-07-29T11:26:14;7.7;;;1.7;;
63953;SDS011;50128;52.094;5.232;2022-07-29T11:28:08;3.9;;;1.8;;
63953;SDS011;50128;52.094;5.232;2022-07-29T11:30:04;6.3;;;2.1;;
63953;SDS011;50128;52.094;5.232;2022-07-29T11:31:54;5.0;;;2.0;;
63953;SDS011;50128;52.094;5.232;2022-07-29T11:33:56;6.6;;;2.1;;
63953;SDS011;50128;52.094;5.232;2022-07-29T11:35:43;7.7;;;2.1;;
63953;SDS011;50128;52.094;5.232;2022-07-29T11:38:23;5.6;;;2.21;;
63953;SDS011;50128;52.094;5.232;2022-07-29T11:40:12;6.1;;;2.21;;
63953;SDS011;50128;52.094;5.232;2022-07-29T11:42:36;4.61;;;1.9;;
63953;SDS011;50128;52.094;5.232;2022-07-29T11:44:55;5.3;;;1.9;;
63953;SDS011;50128;52.094;5.232;2022-07-29T11:46:44;5.5;;;2.0;;
63953;SDS011;50128;52.094;5.232;2022-07-29T11:48:32;5.0;;;1.9;;
63953;SDS011;50128;52.094;5.232;2022-07-29T11:50:28;5.5;;;1.9;;
63953;SDS011;50128;52.094;5.232;2022-07-29T11:54:06;5.5;;;2.0;;
63953;SDS011;50128;52.094;5.232;2022-07-29T11:55:59;5.2;;;1.6;;
63953;SDS011;50128;52.094;5.232;2022-07-29T11:57:47;4.91;;;1.8;;
63953;SDS011;50128;52.094;5.232;2022-07-29T11:59:38;4.91;;;1.8;;
63953;SDS011;50128;52.094;5.232;2022-07-29T12:01:26;5.3;;;1.8;;
63953;SDS011;50128;52.094;5.232;2022-07-29T12:03:22;4.61;;;1.9;;
63953;SDS011;50128;52.094;5.232;2022-07-29T12:05:10;5.6;;;1.9;;
63953;SDS011;50128;52.094;5.232;2022-07-29T12:08:44;5.2;;;2.0;;
63953;SDS011;50128;52.094;5.232;2022-07-29T12:10:30;6.8;;;2.1;;
63953;SDS011;50128;52.094;5.232;2022-07-29T12:12:18;5.9;;;1.8;;
63953;SDS011;50128;52.094;5.232;2022-07-29T12:14:05;4.41;;;1.8;;
63953;SDS011;50128;52.094;5.232;2022-07-29T12:15:51;4.41;;;1.7;;
63953;SDS011;50128;52.094;5.232;2022-07-29T12:17:39;6.5;;;1.7;;
63953;SDS011;50128;52.094;5.232;2022-07-29T12:21:12;5.3;;;2.0;;
63953;SDS011;50128;52.094;5.232;2022-07-29T12:23:03;6.3;;;1.9;;
63953;SDS011;50128;52.094;5.232;2022-07-29T12:24:52;5.5;;;1.7;;
63953;SDS011;50128;52.094;5.232;2022-07-29T12:26:48;6.3;;;2.1;;
63953;SDS011;50128;52.094;5.232;2022-07-29T12:28:36;6.3;;;2.31;;
63953;SDS011;50128;52.094;5.232;2022-07-29T12:30:23;8.31;;;2.21;;
63953;SDS011;50128;52.094;5.232;2022-07-29T12:32:21;5.8;;;2.31;;
63953;SDS011;50128;52.094;5.232;2022-07-29T12:35:57;5.8;;;2.1;;
63953;SDS011;50128;52.094;5.232;2022-07-29T12:37:46;6.1;;;1.9;;
63953;SDS011;50128;52.094;5.232;2022-07-29T12:39:34;5.7;;;1.9;;
63953;SDS011;50128;52.094;5.232;2022-07-29T12:41:21;6.8;;;2.1;;
63953;SDS011;50128;52.094;5.232;2022-07-29T12:43:10;5.9;;;2.1;;
63953;SDS011;50128;52.094;5.232;2022-07-29T12:44:57;5.6;;;2.1;;
63953;SDS011;50128;52.094;5.232;2022-07-29T12:48:50;5.11;;;2.0;;
63953;SDS011;50128;52.094;5.232;2022-07-29T12:50:52;6.8;;;2.21;;
63953;SDS011;50128;52.094;5.232;2022-07-29T12:52:42;5.4;;;2.31;;
63953;SDS011;50128;52.094;5.232;2022-07-29T12:54:30;5.5;;;2.0;;
63953;SDS011;50128;52.094;5.232;2022-07-29T12:56:16;4.8;;;1.8;;
63953;SDS011;50128;52.094;5.232;2022-07-29T12:58:03;6.4;;;2.21;;
63953;SDS011;50128;52.094;5.232;2022-07-29T12:59:59;4.91;;;2.21;;
63953;SDS011;50128;52.094;5.232;2022-07-29T13:01:49;6.7;;;1.9;;